Latest Weather Observations for Mount Magnet Airport

IDW60801

Issued at 12:33 pm WST Saturday 10 December 2022 (issued every 10 minutes, with the page automatically refreshed every 10 minutes)

About weather observations | Map of weather stations | Latest weather observations for WA | Other Formats
Station Details ID: 007600 Name: MOUNT MAGNET AERO Lat: -28.12 Lon: 117.84 Height: 407.0 m
Data from the previous 72 hours. | See also: Recent months at Mount Magnet Airport
Date/Time
WST
Temp
°C
App
Temp
°C
Dew
Point
°C
Rel
Hum
%
Delta-T
°C
Wind Press
QNH
hPa
Press
MSL
hPa
Rain since
9am
mm
Dir  Spd
km/h
Gust
km/h
Spd
kts
Gust
kts
10/12:30pm 29.7 25.2 2.1 17 13.9 SSW 15 26 8 14 1013.8 1011.0 0.0
10/12:00pm 29.6 26.1 3.6 19 13.4 S 11 20 6 11 1014.1 1011.2 0.0
10/11:30am 28.9 24.9 3.0 19 13.2 WSW 13 22 7 12 1014.5 1011.6 0.0
10/11:00am 28.3 24.0 3.2 20 12.8 SW 15 22 8 12 1014.7 1011.8 0.0
10/10:30am 27.7 25.1 4.1 22 12.2 SSW 7 22 4 12 1014.9 1012.0 0.0
10/10:00am 26.0 22.4 5.0 26 10.9 S 13 20 7 11 1015.2 1012.3 0.0
10/09:30am 25.1 22.2 6.3 30 9.9 SE 11 17 6 9 1015.6 1012.8 0.0
10/09:00am 22.9 19.3 6.6 35 8.5 S 15 22 8 12 1015.7 1012.9 0.0
10/08:30am 22.3 19.1 6.9 37 8.1 SE 13 19 7 10 1015.8 1013.0 0.0
10/08:00am 21.0 17.3 8.0 43 6.9 SSE 17 24 9 13 1015.8 1013.0 0.0
10/07:30am 19.6 15.4 8.3 48 6.0 SSE 20 26 11 14 1015.6 1012.8 0.0
10/07:00am 18.2 14.0 8.2 52 5.2 S 20 26 11 14 1015.4 1012.5 0.0
10/06:30am 17.6 13.7 8.5 55 4.8 S 19 24 10 13 1015.2 1012.3 0.0
10/06:00am 16.9 13.9 7.8 55 4.7 SSW 13 17 7 9 1015.0 1012.1 0.0
10/05:30am 16.6 13.6 7.5 55 4.7 SSW 13 17 7 9 1014.8 1011.9 0.0
10/05:00am 16.5 13.8 7.4 55 4.6 SSW 11 13 6 7 1014.5 1011.6 0.0
10/04:30am 17.0 13.9 7.4 53 4.9 SSW 13 15 7 8 1014.2 1011.3 0.0
10/04:00am 17.4 14.2 6.9 50 5.3 SSW 13 15 7 8 1014.0 1011.1 0.0
10/03:30am 17.8 13.8 6.7 48 5.6 SSW 17 24 9 13 1013.8 1011.0 0.0
10/03:00am 18.2 13.6 6.4 46 6.0 SSW 20 24 11 13 1013.7 1010.9 0.0
10/02:30am 19.0 14.2 5.5 41 6.7 SSW 20 32 11 17 1013.5 1010.7 0.0
10/02:00am 19.5 14.7 4.8 38 7.3 SSW 19 22 10 12 1013.4 1010.6 0.0
10/01:30am 20.1 14.3 4.6 36 7.7 SSW 24 32 13 17 1013.3 1010.5 0.0
10/01:00am 20.6 15.5 4.2 34 8.1 SSW 20 26 11 14 1013.2 1010.3 0.0
10/12:30am 21.3 15.8 4.0 32 8.5 SSW 22 30 12 16 1013.0 1010.1 0.0
10/12:00am 21.8 16.3 3.9 31 8.8 SSW 22 30 12 16 1012.8 1009.9 0.0
 
Date/Time
WST
Temp
°C
App
Temp
°C
Dew
Point
°C
Rel
Hum
%
Delta-T
°C
Wind Press
QNH
hPa
Press
MSL
hPa
Rain since
9am
mm
Dir  Spd
km/h
Gust
km/h
Spd
kts
Gust
kts
09/11:30pm 22.6 15.5 3.7 29 9.3 SSW 30 39 16 21 1012.7 1009.8 0.0
09/11:00pm 23.9 17.3 4.3 28 9.9 SW 28 39 15 21 1012.6 1009.7 0.0
09/10:30pm 25.3 19.7 3.3 24 11.0 SSW 22 30 12 16 1012.5 1009.6 0.0
09/10:00pm 26.0 20.4 3.3 23 11.4 SSW 22 30 12 16 1012.4 1009.5 0.0
09/09:30pm 26.6 21.3 3.2 22 11.8 SSW 20 26 11 14 1012.2 1009.3 0.0
09/09:00pm 27.2 22.9 3.0 21 12.2 SW 15 20 8 11 1011.7 1008.8 0.0
09/08:30pm 27.8 23.0 2.8 20 12.6 SW 17 22 9 12 1011.6 1008.7 0.0
09/08:00pm 28.2 23.2 3.8 21 12.6 SW 19 24 10 13 1011.1 1008.3 0.0
09/07:30pm 28.6 22.4 4.2 21 12.7 SW 26 33 14 18 1010.8 1007.9 0.0
09/07:00pm 29.3 23.9 4.7 21 12.9 SW 22 30 12 16 1010.3 1007.4 0.0
09/06:30pm 30.3 24.2 4.9 20 13.5 WSW 26 35 14 19 1010.0 1007.1 0.0
09/06:00pm 31.0 24.5 4.7 19 14.0 WSW 28 35 15 19 1009.6 1006.7 0.0
09/05:30pm 31.6 26.3 5.2 19 14.2 W 22 33 12 18 1009.4 1006.5 0.0
09/05:00pm 31.7 27.2 6.0 20 14.0 WNW 19 32 10 17 1009.2 1006.3 0.0
09/04:30pm 31.8 28.1 6.1 20 14.0 WSW 15 24 8 13 1009.2 1006.3 0.0
09/04:00pm 31.2 25.8 6.3 21 13.6 W 24 33 13 18 1009.3 1006.4 0.0
09/03:30pm 31.7 27.9 6.0 20 14.0 WSW 15 30 8 16 1009.2 1006.3 0.0
09/03:00pm 31.2 27.5 6.3 21 13.6 W 15 33 8 18 1009.5 1006.6 0.0
09/02:30pm 31.8 27.8 6.8 21 13.8 W 17 32 9 17 1009.6 1006.7 0.0
09/02:00pm 30.6 27.1 7.1 23 13.0 W 15 28 8 15 1009.9 1007.0 0.0
09/01:30pm 29.9 26.4 7.2 24 12.5 WSW 15 28 8 15 1010.1 1007.2 0.0
09/01:00pm 30.0 26.6 7.8 25 12.3 W 15 26 8 14 1010.4 1007.5 0.0
09/12:30pm 29.0 25.2 7.6 26 11.8 W 17 26 9 14 1010.6 1007.7 0.0
09/12:00pm 28.0 25.5 8.3 29 10.9 WSW 11 20 6 11 1011.0 1008.2 0.0
09/11:30am 26.7 24.2 8.2 31 10.2 SSE 11 17 6 9 1011.4 1008.5 0.0
09/11:00am 25.9 23.0 8.0 32 9.8 S 13 20 7 11 1011.8 1008.9 0.0
09/10:30am 26.0 23.2 8.5 33 9.6 S 13 24 7 13 1011.9 1009.0 0.0
09/10:00am 24.3 21.4 8.3 36 8.7 SSW 13 22 7 12 1012.2 1009.3 0.0
09/09:30am 23.0 19.6 9.0 41 7.6 SW 17 24 9 13 1012.3 1009.4 0.0
09/09:00am 22.2 19.3 9.7 45 6.9 SSW 15 28 8 15 1012.4 1009.5 0.0
09/08:30am 21.8 18.7 10.3 48 6.4 SSW 17 26 9 14 1012.4 1009.5 0.0
09/08:00am 20.4 17.6 9.9 51 5.8 SSW 15 20 8 11 1012.3 1009.4 0.0
09/07:30am 19.5 17.0 11.0 58 4.7 S 15 20 8 11 1012.2 1009.3 0.0
09/07:00am 19.3 16.6 11.6 61 4.3 SSW 17 22 9 12 1012.0 1009.1 0.0
09/06:30am 18.1 15.4 11.7 66 3.6 SSW 17 22 9 12 1011.7 1008.8 0.0
09/06:00am 17.8 15.5 11.6 67 3.5 SSW 15 19 8 10 1011.4 1008.5 0.0
09/05:30am 17.5 15.6 11.8 69 3.2 SSW 13 17 7 9 1011.0 1008.2 0.0
09/05:00am 17.5 15.2 11.8 69 3.2 SSW 15 20 8 11 1010.8 1007.9 0.0
09/04:30am 17.7 14.9 11.5 67 3.4 SSW 17 20 9 11 1010.6 1007.7 0.0
09/04:00am 18.1 14.9 11.4 65 3.7 SSW 19 22 10 12 1010.4 1007.5 0.0
09/03:30am 18.8 16.1 11.6 63 4.0 SSW 17 24 9 13 1010.3 1007.4 0.0
09/03:00am 19.1 15.8 11.7 62 4.2 SSW 20 26 11 14 1010.2 1007.3 0.0
09/02:30am 19.7 16.4 11.7 60 4.5 SSW 20 28 11 15 1010.3 1007.4 0.0
09/02:00am 20.1 16.7 11.3 57 4.9 SSW 20 26 11 14 1010.4 1007.5 0.0
09/01:30am 20.6 16.1 11.5 56 5.1 SSW 26 33 14 18 1010.4 1007.5 0.0
09/01:00am 21.2 17.5 11.5 54 5.5 SSW 22 30 12 16 1010.3 1007.4 0.0
09/12:30am 21.7 18.0 11.4 52 5.8 SSW 22 28 12 15 1010.4 1007.5 0.0
09/12:00am 22.1 17.9 11.2 50 6.2 SW 24 33 13 18 1010.7 1007.8 0.0
 
Date/Time
WST
Temp
°C
App
Temp
°C
Dew
Point
°C
Rel
Hum
%
Delta-T
°C
Wind Press
QNH
hPa
Press
MSL
hPa
Rain since
9am
mm
Dir  Spd
km/h
Gust
km/h
Spd
kts
Gust
kts
08/11:30pm 22.6 17.7 11.4 49 6.4 SW 28 39 15 21 1010.8 1007.9 0.0
08/11:00pm 23.5 19.2 10.9 45 7.1 SW 24 33 13 18 1010.9 1008.0 0.0
08/10:30pm 24.4 19.7 10.7 42 7.8 SW 26 35 14 19 1010.8 1007.9 0.0
08/10:00pm 25.2 19.7 10.6 39 8.3 WSW 30 39 16 21 1010.6 1007.7 0.0
08/09:30pm 26.4 20.4 10.1 36 9.2 SW 32 44 17 24 1010.1 1007.2 0.0
08/09:00pm 27.6 21.8 9.4 32 10.3 WSW 30 41 16 22 1009.6 1006.7 0.0
08/08:56pm 27.8 22.3 9.1 31 10.5 WSW 28 41 15 22 1009.5 1006.6 0.0
08/08:30pm 29.6 25.8 5.6 22 12.8 W 15 20 8 11 1009.1 1006.2 0.0
08/08:00pm 30.0 26.3 4.6 20 13.4 WSW 13 17 7 9 1008.9 1006.0 0.0
08/07:30pm 30.6 26.1 4.4 19 13.8 WSW 17 20 9 11 1008.4 1005.5 0.0
08/07:00pm 31.1 25.2 4.0 18 14.2 WSW 24 28 13 15 1008.0 1005.1 0.0
08/06:30pm 31.6 26.0 3.6 17 14.6 W 22 32 12 17 1007.6 1004.7 0.0
08/06:00pm 32.2 26.7 4.1 17 14.9 WSW 22 30 12 16 1007.2 1004.3 0.0
08/05:30pm 32.7 27.1 3.6 16 15.3 W 22 33 12 18 1006.9 1004.0 0.0
08/05:00pm 32.4 27.7 5.1 18 14.7 WSW 19 32 10 17 1006.6 1003.6 0.0
08/04:30pm 32.7 27.7 4.5 17 15.0 W 20 32 11 17 1006.7 1003.8 0.0
08/04:00pm 32.5 27.6 5.1 18 14.8 W 20 35 11 19 1006.8 1003.9 0.0
08/03:30pm 33.4 28.7 5.0 17 15.3 W 19 30 10 16 1006.9 1004.0 0.0
08/03:00pm 32.0 27.4 5.5 19 14.4 WSW 19 32 10 17 1007.2 1004.3 0.0
08/02:30pm 32.1 27.8 7.0 21 13.9 WSW 19 30 10 16 1007.5 1004.6 0.0
08/02:00pm 31.1 26.8 6.9 22 13.3 W 19 35 10 19 1007.9 1005.0 0.0
08/01:30pm 31.1 26.9 7.5 23 13.1 W 19 33 10 18 1008.1 1005.2 0.0
08/01:00pm 30.0 26.8 8.4 26 12.1 WSW 15 28 8 15 1008.4 1005.5 0.0
08/12:30pm 29.2 25.1 8.8 28 11.5 WNW 20 33 11 18 1008.9 1006.0 0.0
08/12:00pm 29.7 25.8 9.3 28 11.6 W 20 33 11 18 1009.2 1006.3 0.0
08/11:30am 28.0 24.6 10.7 34 10.0 WSW 19 26 10 14 1009.5 1006.6 0.0
08/11:00am 27.7 24.4 11.7 37 9.4 W 20 30 11 16 1009.8 1006.9 0.0
08/10:30am 26.1 23.4 11.8 41 8.3 WNW 17 32 9 17 1010.0 1007.1 0.0
08/10:00am 25.2 23.3 11.7 43 7.8 WNW 13 24 7 13 1010.2 1007.3 0.0
08/09:30am 23.6 21.0 12.0 48 6.7 WNW 17 24 9 13 1010.3 1007.4 0.0
08/09:00am 23.5 21.4 12.5 50 6.4 W 15 24 8 13 1010.4 1007.5 0.0
08/08:30am 22.8 19.8 12.4 52 6.0 W 20 28 11 15 1010.4 1007.5 0.0
08/08:00am 21.6 18.7 12.2 55 5.4 WNW 19 28 10 15 1010.4 1007.5 0.0
08/07:30am 20.4 17.3 12.1 59 4.7 WNW 20 30 11 16 1010.2 1007.3 0.0
08/07:00am 20.2 17.1 12.2 60 4.6 WNW 20 26 11 14 1009.9 1007.0 0.0
08/06:30am 20.1 17.1 12.6 62 4.3 WNW 20 28 11 15 1009.6 1006.7 0.0
08/06:00am 19.9 16.6 12.7 63 4.1 WNW 22 28 12 15 1009.3 1006.4 0.0
08/05:30am 19.7 16.0 12.7 64 4.0 WNW 24 32 13 17 1008.9 1006.0 0.0
08/05:00am 19.8 17.1 13.0 65 3.9 WNW 19 24 10 13 1008.4 1005.5 0.0
08/04:30am 20.2 16.6 13.2 64 4.1 W 24 32 13 17 1008.1 1005.2 0.0
08/04:00am 21.0 17.7 12.7 59 4.8 W 22 30 12 16 1007.8 1004.9 0.0
08/03:30am 22.0 18.2 12.5 54 5.5 W 24 30 13 16 1007.1 1004.2 0.0
08/03:00am 23.3 21.0 12.9 52 6.1 WNW 17 20 9 11 1006.9 1004.0 0.0
08/02:30am 23.8 20.9 12.8 50 6.4 WNW 20 24 11 13 1006.9 1004.0 0.0
08/02:00am 24.5 21.7 13.1 49 6.8 WNW 20 26 11 14 1006.7 1003.8 0.0
08/01:30am 25.4 22.7 12.9 45 7.4 WNW 19 24 10 13 1006.3 1003.3 0.0
08/01:00am 26.0 23.1 12.8 44 7.8 W 20 28 11 15 1005.8 1002.9 0.0
08/12:30am 27.1 23.6 12.3 39 8.7 WSW 22 30 12 16 1005.7 1002.8 0.0
08/12:00am 28.3 24.6 9.6 31 10.6 W 19 26 10 14 1005.5 1002.6 0.0
 
Date/Time
WST
Temp
°C
App
Temp
°C
Dew
Point
°C
Rel
Hum
%
Delta-T
°C
Wind Press
QNH
hPa
Press
MSL
hPa
Rain since
9am
mm
Dir  Spd
km/h
Gust
km/h
Spd
kts
Gust
kts
07/11:30pm 28.9 24.2 9.1 29 11.2 W 24 32 13 17 1005.8 1002.9 0.0
07/11:00pm 29.8 24.3 9.3 28 11.7 W 28 39 15 21 1005.9 1003.0 0.0
07/10:30pm 30.9 25.6 6.7 22 13.3 WNW 24 33 13 18 1005.9 1003.0 0.0
07/10:00pm 31.4 27.1 7.1 22 13.5 WNW 19 26 10 14 1005.8 1002.9 0.0
07/09:30pm 31.9 27.4 6.9 21 13.8 WNW 20 26 11 14 1005.7 1002.8 0.0
07/09:00pm 32.7 26.9 6.1 19 14.6 WNW 26 35 14 19 1005.7 1002.8 0.0
07/08:30pm 33.4 27.6 4.2 16 15.6 WNW 24 32 13 17 1005.5 1002.6 0.0
07/08:00pm 34.3 28.4 2.0 13 16.8 WNW 22 32 12 17 1005.4 1002.5 0.0
07/07:30pm 35.1 28.0 1.5 12 17.3 NW 28 39 15 21 1005.1 1002.2 0.0
07/07:00pm 35.8 28.2 0.8 11 18.0 NW 30 43 16 23 1004.7 1001.8 0.0
07/06:30pm 36.5 30.2 1.3 11 18.2 NW 24 33 13 18 1004.3 1001.3 0.0
07/06:00pm 37.1 28.9 0.4 10 18.9 NW 33 46 18 25 1004.1 1001.1 0.0
07/05:30pm 37.5 29.4 0.7 10 19.0 NW 33 48 18 26 1003.9 1000.9 0.0
07/05:00pm 38.0 30.9 1.1 10 19.3 NW 28 43 15 23 1003.6 1000.6 0.0
07/04:36pm 38.0 30.1 1.1 10 19.2 NNW 32 50 17 27 1003.6 1000.6 0.0
07/04:30pm 38.1 30.0 1.2 10 19.3 NW 33 50 18 27 1003.6 1000.6 0.0
07/04:08pm 38.4 30.4 1.4 10 19.4 NNW 33 43 18 23 1003.6 1000.6 0.0
07/04:00pm 38.6 29.5 1.6 10 19.6 N 39 50 21 27 1003.4 1000.5 0.0
07/03:43pm 39.4 31.1 2.2 10 19.9 NNW 35 48 19 26 1003.7 1000.7 0.0
07/03:30pm 39.4 31.1 2.2 10 19.9 WNW 35 48 19 26 1003.7 1000.7 0.0
07/03:01pm 40.1 32.2 1.2 9 20.5 NW 32 59 17 32 1003.8 1000.8 0.0
07/03:00pm 40.4 32.6 1.4 9 20.8 NW 32 44 17 24 1003.8 1000.8 0.0
07/02:38pm 39.0 31.0 1.9 10 19.7 NW 33 57 18 31 1003.9 1000.9 0.0
07/02:32pm 39.8 31.9 1.0 9 20.4 NNW 32 57 17 31 1004.1 1001.1 0.0
07/02:30pm 40.1 32.6 1.2 9 20.5 NNW 30 57 16 31 1004.0 1001.0 0.0
07/02:16pm 39.5 31.0 0.8 9 20.2 N 35 54 19 29 1004.1 1001.1 0.0
07/02:04pm 38.4 30.6 1.4 10 19.4 NNW 32 48 17 26 1004.3 1001.3 0.0
07/02:00pm 39.2 31.3 2.0 10 19.8 NW 33 57 18 31 1004.4 1001.5 0.0
07/01:46pm 38.9 31.9 1.8 10 19.6 NNW 28 48 15 26 1004.5 1001.6 0.0
07/01:30pm 38.8 31.6 3.1 11 19.3 NNW 30 50 16 27 1004.8 1001.9 0.0
07/01:04pm 38.7 31.6 5.4 13 18.6 N 32 50 17 27 1005.4 1002.5 0.0
07/01:00pm 37.4 30.1 5.4 14 17.8 N 33 50 18 27 1005.4 1002.5 0.0

Other formats

Comma delimited format used in spreadsheet applications
http://www.bom.gov.au/fwo/IDW60801/IDW60801.94429.axf

JavaScript Object Notation format (JSON) in row-major order
http://www.bom.gov.au/fwo/IDW60801/IDW60801.94429.json

Data quality

Most of these data are generated automatically and are frequently updated. Quality checks on data are not normally performed. It is possible for incorrect values to appear. Refer to information at About Latest Weather Observations and please check the disclaimer before using these data.